Time;durP1;ratioP1;P1;durP2;ratioP2;P2;SDS_P1;SDS_P2;PMS_P1;PMS_P2;Temp;Humidity;BMP_temperature;BMP_pressure;BME280_temperature;BME280_humidity;BME280_pressure;Samples;Min_cycle;Max_cycle;Signal;HPM_P1;HPM_P2
2023/01/07 00:01:15;;;;;;;6.88;4.88;;;3.20;99.90;;;;;;5066351;28;20590;-56
2023/01/07 00:03:41;;;;;;;8.52;5.00;;;3.20;99.90;;;;;;5038634;28;20162;-56
2023/01/07 00:06:12;;;;;;;8.88;4.85;;;3.20;99.90;;;;;;5065319;28;20229;-55
2023/01/07 00:08:41;;;;;;;7.93;5.20;;;3.20;99.90;;;;;;5052000;28;20025;-56
2023/01/07 00:11:12;;;;;;;8.55;5.05;;;3.20;99.90;;;;;;5051543;28;20032;-57
2023/01/07 00:13:38;;;;;;;7.45;5.05;;;3.30;99.90;;;;;;5062232;28;20048;-54
2023/01/07 00:16:06;;;;;;;7.63;4.70;;;3.30;99.90;;;;;;5069413;28;20032;-56
2023/01/07 00:18:33;;;;;;;6.05;5.05;;;3.30;99.90;;;;;;5065301;28;20032;-56
2023/01/07 00:21:00;;;;;;;6.63;4.55;;;3.30;99.90;;;;;;5052195;28;20025;-54
2023/01/07 00:23:27;;;;;;;9.80;5.28;;;3.30;99.90;;;;;;5066303;28;20062;-52
2023/01/07 00:26:06;;;;;;;8.25;4.38;;;3.30;99.90;;;;;;5069600;28;20032;-56
2023/01/07 00:28:40;;;;;;;8.82;5.50;;;3.30;99.90;;;;;;5068474;28;20029;-56
2023/01/07 00:31:11;;;;;;;10.07;4.72;;;3.30;99.90;;;;;;5065601;28;20051;-56
2023/01/07 00:33:46;;;;;;;10.60;5.15;;;3.30;99.90;;;;;;5062056;28;20031;-57
2023/01/07 00:36:12;;;;;;;11.07;5.38;;;3.30;99.90;;;;;;5069447;28;20017;-56
2023/01/07 00:38:38;;;;;;;8.80;5.43;;;3.30;99.90;;;;;;5068560;28;20415;-54
2023/01/07 00:41:04;;;;;;;5.35;4.28;;;3.40;99.90;;;;;;5051092;28;20028;-52
2023/01/07 00:43:30;;;;;;;9.13;5.25;;;3.30;99.90;;;;;;5064584;28;20593;-56
2023/01/07 00:45:55;;;;;;;7.95;5.80;;;3.30;99.90;;;;;;5068795;28;20646;-55
2023/01/07 00:48:22;;;;;;;8.98;5.32;;;3.30;99.90;;;;;;5065898;28;20044;-57
2023/01/07 00:50:50;;;;;;;10.57;5.38;;;3.40;99.90;;;;;;5046635;28;20035;-56
2023/01/07 00:53:16;;;;;;;9.38;5.40;;;3.30;99.90;;;;;;5064498;28;20477;-56
2023/01/07 00:55:42;;;;;;;7.93;5.28;;;3.40;99.90;;;;;;5061044;28;20109;-55
2023/01/07 00:58:14;;;;;;;7.57;5.10;;;3.40;99.90;;;;;;5065506;28;20578;-55
2023/01/07 01:00:40;;;;;;;10.32;5.47;;;3.40;99.90;;;;;;5044239;28;20069;-53
2023/01/07 01:03:07;;;;;;;8.02;5.65;;;3.40;99.90;;;;;;5058467;28;20067;-55
2023/01/07 01:05:33;;;;;;;10.70;5.72;;;3.40;99.90;;;;;;5059263;28;20033;-54
2023/01/07 01:07:58;;;;;;;7.35;5.35;;;3.40;99.90;;;;;;5063261;28;20558;-54
2023/01/07 01:10:24;;;;;;;12.88;6.53;;;3.40;99.90;;;;;;5033536;28;20543;-57
2023/01/07 01:12:49;;;;;;;11.40;5.57;;;3.50;99.90;;;;;;5066281;28;20095;-57
2023/01/07 01:15:16;;;;;;;10.63;6.28;;;3.50;99.90;;;;;;5043094;28;20062;-56
2023/01/07 01:17:42;;;;;;;7.63;5.28;;;3.50;99.90;;;;;;5047912;28;20381;-54
2023/01/07 01:20:11;;;;;;;9.88;5.15;;;3.50;99.90;;;;;;5061389;28;20028;-57
2023/01/07 01:22:37;;;;;;;10.50;6.70;;;3.50;99.90;;;;;;5064967;28;20028;-54
2023/01/07 01:25:03;;;;;;;12.80;6.05;;;3.50;99.90;;;;;;5068654;28;20020;-55
2023/01/07 01:27:30;;;;;;;9.77;5.72;;;3.60;99.90;;;;;;5065072;28;20044;-53
2023/01/07 01:29:56;;;;;;;10.95;5.97;;;3.60;99.90;;;;;;5050917;28;20033;-54
2023/01/07 01:32:22;;;;;;;14.35;6.05;;;3.60;99.90;;;;;;5064664;28;20039;-51
2023/01/07 01:34:47;;;;;;;9.30;6.30;;;3.60;99.90;;;;;;5068776;28;20028;-57
2023/01/07 01:37:13;;;;;;;11.25;6.93;;;3.60;99.90;;;;;;5063489;28;20487;-52
2023/01/07 01:39:38;;;;;;;11.63;6.57;;;3.60;99.90;;;;;;5048239;28;20403;-57
2023/01/07 01:42:04;;;;;;;12.50;6.78;;;3.60;99.90;;;;;;5045175;28;20040;-56
2023/01/07 01:44:47;;;;;;;12.20;7.38;;;3.70;99.90;;;;;;5053847;28;20028;-56
2023/01/07 01:47:31;;;;;;;12.85;7.60;;;3.70;99.90;;;;;;5049649;28;20130;-55
2023/01/07 01:50:03;;;;;;;10.93;6.80;;;3.80;99.90;;;;;;5066417;28;20039;-56
2023/01/07 01:52:41;;;;;;;10.65;6.60;;;3.80;99.90;;;;;;5068898;28;20025;-55
2023/01/07 01:55:08;;;;;;;11.05;6.75;;;3.80;99.90;;;;;;5059875;28;20037;-57
2023/01/07 01:57:35;;;;;;;10.98;6.95;;;3.90;99.90;;;;;;5056674;28;20041;-54
2023/01/07 02:00:02;;;;;;;11.93;7.55;;;3.90;99.90;;;;;;5061868;28;20036;-54
2023/01/07 02:02:33;;;;;;;14.77;8.32;;;3.90;99.90;;;;;;5066138;28;20032;-56
2023/01/07 02:04:59;;;;;;;12.63;7.10;;;4.00;99.90;;;;;;5067245;28;20029;-55
2023/01/07 02:07:25;;;;;;;11.75;7.80;;;4.00;99.90;;;;;;5059896;28;20090;-54
2023/01/07 02:10:17;;;;;;;12.48;7.25;;;4.00;99.90;;;;;;5068302;28;20060;-56
2023/01/07 02:13:07;;;;;;;14.73;7.85;;;4.10;99.90;;;;;;5045047;28;20481;-53
2023/01/07 02:15:51;;;;;;;11.88;7.90;;;4.10;99.90;;;;;;5061765;28;20035;-55
2023/01/07 02:18:27;;;;;;;14.90;8.50;;;4.20;99.90;;;;;;5069203;28;20504;-55
2023/01/07 02:21:00;;;;;;;;;;;4.20;99.90;;;;;;5072688;28;20056;-56
2023/01/07 02:23:58;;;;;;;13.93;8.77;;;4.20;99.90;;;;;;5049840;28;19904;-52
2023/01/07 02:26:49;;;;;;;14.48;10.02;;;4.30;99.90;;;;;;5049807;28;20024;-56
2023/01/07 02:29:56;;;;;;;18.75;10.43;;;4.30;99.90;;;;;;5065258;28;20036;-53
2023/01/07 02:32:27;;;;;;;16.33;9.32;;;4.40;99.90;;;;;;4974119;28;20040;-53
2023/01/07 02:35:14;;;;;;;21.17;10.32;;;4.40;99.90;;;;;;5071850;28;20035;-53
2023/01/07 02:38:02;;;;;;;19.50;10.02;;;4.40;99.90;;;;;;5065426;28;20029;-54
2023/01/07 02:40:57;;;;;;;15.90;10.40;;;4.50;99.90;;;;;;5069225;28;20091;-52
2023/01/07 02:43:43;;;;;;;17.02;10.00;;;4.60;99.90;;;;;;5067194;28;20028;-56
2023/01/07 02:46:27;;;;;;;14.52;9.98;;;4.60;99.90;;;;;;5038332;28;20056;-56
2023/01/07 02:48:53;;;;;;;19.65;11.02;;;4.60;99.90;;;;;;5048346;28;20396;-53
2023/01/07 02:51:18;;;;;;;22.70;12.70;;;4.70;99.90;;;;;;5069910;28;20029;-53
2023/01/07 02:53:47;;;;;;;18.60;11.32;;;4.80;99.90;;;;;;5065105;28;20032;-54
2023/01/07 02:56:54;;;;;;;19.83;10.98;;;4.80;99.90;;;;;;5067457;28;20074;-53
2023/01/07 02:59:28;;;;;;;25.65;14.48;;;4.90;99.90;;;;;;5049957;28;20017;-55
2023/01/07 03:02:00;;;;;;;26.85;14.98;;;4.90;99.90;;;;;;5070257;28;20067;-56
2023/01/07 03:04:42;;;;;;;25.00;14.05;;;4.90;99.90;;;;;;5049379;28;20025;-55
2023/01/07 03:07:39;;;;;;;24.48;14.57;;;5.00;99.90;;;;;;5062899;28;20407;-55
2023/01/07 03:10:11;;;;;;;25.10;14.85;;;5.10;99.90;;;;;;5062995;28;20040;-56
2023/01/07 03:12:42;;;;;;;32.10;16.08;;;5.10;99.90;;;;;;5046048;28;20032;-56
2023/01/07 03:15:20;;;;;;;27.45;16.73;;;5.30;99.90;;;;;;5079795;22;20059;-60
2023/01/07 03:17:59;;;;;;;27.00;15.52;;;5.30;99.90;;;;;;5070816;28;20074;-60
2023/01/07 03:20:25;;;;;;;33.45;17.13;;;5.30;99.90;;;;;;5071282;28;20107;-61
2023/01/07 03:22:52;;;;;;;29.90;16.35;;;5.40;99.90;;;;;;5070921;28;20016;-60
2023/01/07 03:25:20;;;;;;;30.20;17.45;;;5.50;99.90;;;;;;5070473;28;20020;-60
2023/01/07 03:27:49;;;;;;;37.10;20.25;;;5.60;99.90;;;;;;5071072;28;20024;-59
2023/01/07 03:30:17;;;;;;;35.38;19.15;;;5.60;99.90;;;;;;5071000;28;20071;-60
2023/01/07 03:33:09;;;;;;;31.52;18.40;;;5.70;99.90;;;;;;5071011;28;20032;-59
2023/01/07 03:35:39;;;;;;;32.22;17.17;;;5.80;99.90;;;;;;5062069;28;20043;-60
2023/01/07 03:38:07;;;;;;;36.30;18.05;;;5.80;99.90;;;;;;5070766;28;20548;-59
2023/01/07 03:40:32;;;;;;;36.55;17.77;;;5.80;99.90;;;;;;5070891;28;20029;-58
2023/01/07 03:42:58;;;;;;;34.80;18.40;;;5.90;99.90;;;;;;5052813;28;20039;-59
2023/01/07 03:45:26;;;;;;;37.33;19.15;;;5.90;99.90;;;;;;5052303;28;20107;-60
2023/01/07 03:47:54;;;;;;;39.47;18.80;;;5.90;99.90;;;;;;5065502;28;20242;-59
2023/01/07 03:50:20;;;;;;;31.95;18.45;;;6.00;99.90;;;;;;5068006;28;20111;-61
2023/01/07 03:52:50;;;;;;;30.48;16.60;;;6.00;99.90;;;;;;5070529;28;20029;-60
2023/01/07 03:55:16;;;;;;;35.78;18.52;;;6.00;99.90;;;;;;5049731;28;20027;-61
2023/01/07 03:57:42;;;;;;;31.55;18.05;;;6.00;99.90;;;;;;5065246;28;20052;-57
2023/01/07 04:00:09;;;;;;;39.78;20.08;;;6.00;99.90;;;;;;5067547;28;20524;-60
2023/01/07 04:02:35;;;;;;;34.97;18.58;;;6.10;99.90;;;;;;5051832;28;20030;-59
2023/01/07 04:05:01;;;;;;;36.00;18.33;;;6.10;99.90;;;;;;5069645;28;20111;-56
2023/01/07 04:07:26;;;;;;;31.60;17.80;;;6.10;99.90;;;;;;5066265;28;20021;-60
2023/01/07 04:09:52;;;;;;;34.72;17.42;;;6.10;99.90;;;;;;5063864;28;20061;-60
2023/01/07 04:12:17;;;;;;;35.88;19.17;;;6.20;99.90;;;;;;5064298;28;20498;-59
2023/01/07 04:14:43;;;;;;;39.78;19.73;;;6.20;99.90;;;;;;5049331;28;20028;-57
2023/01/07 04:17:09;;;;;;;38.03;19.58;;;6.20;99.90;;;;;;5070084;28;20020;-59
2023/01/07 04:19:37;;;;;;;42.80;19.52;;;6.20;99.90;;;;;;5070176;28;20064;-58
2023/01/07 04:22:04;;;;;;;36.38;18.85;;;6.30;99.90;;;;;;5069678;28;20097;-60
2023/01/07 04:24:29;;;;;;;38.33;19.45;;;6.30;99.90;;;;;;5069817;28;20028;-61
2023/01/07 04:26:55;;;;;;;32.17;17.75;;;6.30;99.90;;;;;;5063162;28;20506;-57
2023/01/07 04:29:20;;;;;;;33.92;18.67;;;6.40;99.90;;;;;;5069203;28;20459;-59
2023/01/07 04:31:46;;;;;;;33.47;20.20;;;6.40;99.90;;;;;;5064822;28;20104;-60
2023/01/07 04:34:12;;;;;;;31.35;17.27;;;6.40;99.90;;;;;;5067052;28;20036;-60
2023/01/07 04:36:37;;;;;;;35.28;17.90;;;6.40;99.90;;;;;;5069219;28;20112;-60
2023/01/07 04:39:03;;;;;;;34.88;18.55;;;6.40;99.90;;;;;;5062824;28;20124;-61
2023/01/07 04:41:29;;;;;;;35.10;18.17;;;6.40;99.90;;;;;;5066553;28;20075;-59
2023/01/07 04:43:54;;;;;;;34.33;17.15;;;6.40;99.90;;;;;;5057550;28;20040;-60
2023/01/07 04:46:20;;;;;;;33.95;18.15;;;6.50;99.90;;;;;;5066579;28;20032;-60
2023/01/07 04:48:45;;;;;;;35.72;18.40;;;6.50;99.90;;;;;;5039630;28;20036;-60
2023/01/07 04:51:11;;;;;;;34.08;18.92;;;6.50;99.90;;;;;;5066418;28;20098;-61
2023/01/07 04:53:36;;;;;;;32.63;17.77;;;6.50;99.90;;;;;;5066386;28;20044;-60
2023/01/07 04:56:04;;;;;;;36.90;19.33;;;6.50;99.90;;;;;;5050605;28;20085;-60
2023/01/07 04:58:30;;;;;;;34.28;18.13;;;6.60;99.90;;;;;;5069562;28;20515;-60
2023/01/07 05:00:57;;;;;;;41.05;18.75;;;6.60;99.90;;;;;;5064016;28;20064;-59
2023/01/07 05:03:23;;;;;;;36.28;19.30;;;6.60;99.90;;;;;;5069298;28;20024;-59
2023/01/07 05:05:49;;;;;;;35.13;18.90;;;6.60;99.90;;;;;;5044446;28;20055;-60
2023/01/07 05:08:14;;;;;;;39.55;19.33;;;6.60;99.90;;;;;;5065786;28;20108;-61
2023/01/07 05:10:40;;;;;;;34.05;17.92;;;6.70;99.90;;;;;;5066764;28;20036;-61
2023/01/07 05:13:05;;;;;;;33.38;19.38;;;6.70;99.90;;;;;;5064367;28;20025;-59
2023/01/07 05:15:31;;;;;;;32.60;18.60;;;6.70;99.90;;;;;;5068682;28;20036;-60
2023/01/07 05:17:57;;;;;;;33.42;18.80;;;6.70;99.90;;;;;;5046250;28;20028;-60
2023/01/07 05:20:22;;;;;;;32.25;18.38;;;6.70;99.90;;;;;;5069329;28;20099;-58
2023/01/07 05:22:48;;;;;;;30.17;17.85;;;6.80;99.90;;;;;;5069375;28;20536;-60
2023/01/07 05:25:13;;;;;;;40.45;20.33;;;6.80;99.90;;;;;;5069075;28;20032;-60
2023/01/07 05:27:39;;;;;;;35.30;19.73;;;6.90;99.90;;;;;;5068933;28;20582;-61
2023/01/07 05:30:05;;;;;;;34.78;18.73;;;7.00;99.90;;;;;;5069204;28;20043;-62
2023/01/07 05:32:30;;;;;;;34.42;20.73;;;7.20;99.90;;;;;;5069181;28;20380;-62
2023/01/07 05:34:56;;;;;;;41.63;19.98;;;7.40;99.90;;;;;;5063311;28;20036;-59
2023/01/07 05:37:22;;;;;;;37.28;19.80;;;7.50;99.90;;;;;;5069184;28;20052;-60
2023/01/07 05:39:47;;;;;;;36.47;19.92;;;7.60;99.90;;;;;;5051262;28;20086;-61
2023/01/07 05:42:13;;;;;;;39.35;20.77;;;7.70;99.90;;;;;;5068994;28;20086;-61
2023/01/07 05:44:38;;;;;;;31.52;19.17;;;7.80;99.90;;;;;;5068470;28;20028;-61
2023/01/07 05:47:04;;;;;;;38.85;20.40;;;7.90;99.90;;;;;;5060046;28;20020;-61
2023/01/07 05:49:30;;;;;;;38.58;19.40;;;7.90;99.90;;;;;;5070941;28;20032;-61
2023/01/07 05:51:55;;;;;;;38.20;20.25;;;7.90;99.90;;;;;;5072934;28;20477;-62
2023/01/07 05:54:21;;;;;;;43.03;21.98;;;8.00;99.90;;;;;;5070777;28;20509;-61
2023/01/07 05:56:46;;;;;;;41.45;19.70;;;8.00;99.90;;;;;;5069568;28;20697;-61
2023/01/07 05:59:12;;;;;;;38.42;20.10;;;8.00;99.90;;;;;;5067227;28;20534;-58
2023/01/07 06:01:37;;;;;;;46.53;22.13;;;8.10;99.90;;;;;;5068093;28;20416;-59
2023/01/07 06:04:03;;;;;;;41.60;21.27;;;8.10;99.90;;;;;;5072702;28;20025;-58
2023/01/07 06:06:28;;;;;;;47.95;22.10;;;8.20;99.90;;;;;;5072008;28;20095;-60
2023/01/07 06:08:54;;;;;;;43.90;21.42;;;8.20;99.90;;;;;;5064148;28;20028;-60
2023/01/07 06:11:19;;;;;;;34.28;19.80;;;8.20;99.90;;;;;;5071853;28;20474;-61
2023/01/07 06:13:45;;;;;;;40.40;22.75;;;8.20;99.90;;;;;;5070006;28;20075;-60
2023/01/07 06:16:12;;;;;;;44.03;20.80;;;8.30;99.90;;;;;;5072533;28;20502;-61
2023/01/07 06:18:38;;;;;;;37.40;20.70;;;8.30;99.90;;;;;;5072539;28;20032;-61
2023/01/07 06:21:03;;;;;;;45.35;21.75;;;8.30;99.90;;;;;;5051563;28;20028;-60
2023/01/07 06:23:30;;;;;;;36.88;20.52;;;8.30;99.90;;;;;;5069322;28;20457;-61
2023/01/07 06:25:55;;;;;;;42.40;21.25;;;8.40;99.90;;;;;;5069530;28;20028;-60
2023/01/07 06:28:21;;;;;;;41.00;22.27;;;8.40;99.90;;;;;;5063926;28;20035;-59
2023/01/07 06:30:47;;;;;;;39.25;21.02;;;8.40;99.90;;;;;;5063759;28;20488;-59
2023/01/07 06:33:14;;;;;;;42.10;22.17;;;8.40;99.90;;;;;;5064305;28;20075;-61
2023/01/07 06:35:40;;;;;;;39.25;19.67;;;8.50;99.90;;;;;;5071576;28;20569;-59
2023/01/07 06:38:05;;;;;;;38.22;20.77;;;8.50;99.90;;;;;;5063361;28;20036;-60
2023/01/07 06:40:31;;;;;;;41.03;20.05;;;8.50;99.90;;;;;;5065815;28;20132;-57
2023/01/07 06:42:57;;;;;;;35.38;19.80;;;8.50;99.90;;;;;;5044131;28;20024;-60
2023/01/07 06:45:23;;;;;;;37.95;21.55;;;8.50;99.90;;;;;;5071524;28;20400;-60
2023/01/07 06:47:48;;;;;;;38.03;21.17;;;8.50;99.90;;;;;;5045202;28;20821;-61
2023/01/07 06:50:15;;;;;;;37.45;21.63;;;8.50;99.90;;;;;;5063968;28;20558;-60
2023/01/07 06:52:40;;;;;;;37.65;19.83;;;8.50;99.90;;;;;;5071272;28;20634;-60
2023/01/07 06:55:06;;;;;;;31.90;19.23;;;8.50;99.90;;;;;;5071301;28;20107;-61
2023/01/07 06:57:32;;;;;;;35.65;20.35;;;8.50;99.90;;;;;;5070928;28;20029;-60
2023/01/07 06:59:57;;;;;;;34.30;20.23;;;8.60;99.90;;;;;;5070736;28;20033;-58
2023/01/07 07:02:26;;;;;;;34.40;20.35;;;8.60;99.90;;;;;;5068913;28;20183;-60
2023/01/07 07:04:52;;;;;;;34.83;20.88;;;8.60;99.90;;;;;;5064716;28;20029;-58
2023/01/07 07:07:18;;;;;;;36.80;20.17;;;8.60;99.90;;;;;;5051242;28;20445;-59
2023/01/07 07:09:44;;;;;;;38.33;20.08;;;8.70;99.90;;;;;;5048601;28;20033;-57
2023/01/07 07:12:10;;;;;;;30.27;18.52;;;8.70;99.90;;;;;;5069126;28;20021;-59
2023/01/07 07:14:36;;;;;;;34.55;20.50;;;8.70;99.90;;;;;;5049994;28;20040;-58
2023/01/07 07:17:02;;;;;;;32.90;20.95;;;8.70;99.90;;;;;;5066049;28;20021;-59
2023/01/07 07:19:28;;;;;;;35.28;18.65;;;8.70;99.90;;;;;;5071177;28;20032;-60
2023/01/07 07:21:54;;;;;;;28.77;18.35;;;8.80;99.90;;;;;;5070962;28;20376;-62
2023/01/07 07:24:19;;;;;;;35.63;21.55;;;8.70;99.90;;;;;;5067301;28;20026;-60
2023/01/07 07:26:45;;;;;;;34.22;21.05;;;8.80;99.90;;;;;;5069799;28;20457;-60
2023/01/07 07:29:10;;;;;;;32.38;19.70;;;8.80;99.90;;;;;;5060661;28;20032;-57
2023/01/07 07:31:37;;;;;;;33.53;20.10;;;8.80;99.90;;;;;;5067230;28;20471;-60
2023/01/07 07:34:03;;;;;;;33.63;19.50;;;8.80;99.90;;;;;;5050699;28;20039;-60
2023/01/07 07:36:29;;;;;;;36.25;20.45;;;8.80;99.90;;;;;;5070553;28;20044;-58
2023/01/07 07:38:55;;;;;;;30.55;19.92;;;8.80;99.90;;;;;;5070763;28;20416;-57
2023/01/07 07:41:20;;;;;;;34.28;20.17;;;8.80;99.90;;;;;;5070703;28;20059;-60
2023/01/07 07:43:46;;;;;;;30.20;19.38;;;8.80;99.90;;;;;;5070552;28;20044;-60
2023/01/07 07:46:11;;;;;;;31.60;19.85;;;8.80;99.90;;;;;;5069684;28;20032;-58
2023/01/07 07:48:37;;;;;;;34.10;21.00;;;8.80;99.90;;;;;;5044989;28;20700;-58
2023/01/07 07:51:02;;;;;;;30.38;20.08;;;8.90;99.90;;;;;;5070437;28;20103;-60
2023/01/07 07:53:28;;;;;;;33.53;21.10;;;8.90;99.90;;;;;;5070475;28;20404;-60
2023/01/07 07:55:54;;;;;;;32.75;20.73;;;8.90;99.90;;;;;;5069744;28;20481;-56
2023/01/07 07:58:19;;;;;;;32.22;20.75;;;8.90;99.90;;;;;;5070414;28;20027;-59
2023/01/07 08:00:45;;;;;;;33.35;20.13;;;8.90;99.90;;;;;;5070943;28;20032;-55
2023/01/07 08:03:10;;;;;;;32.25;20.73;;;8.90;99.90;;;;;;5068985;28;20085;-60
2023/01/07 08:05:40;;;;;;;31.98;20.45;;;9.00;99.90;;;;;;5069717;28;20078;-60
2023/01/07 08:08:08;;;;;;;30.23;19.60;;;8.90;99.90;;;;;;5069802;28;20024;-60
2023/01/07 08:10:34;;;;;;;29.77;20.90;;;8.90;99.90;;;;;;5065169;28;20029;-57
2023/01/07 08:12:59;;;;;;;32.15;21.27;;;9.00;99.90;;;;;;5045885;28;20134;-61
2023/01/07 08:15:25;;;;;;;34.22;19.95;;;8.90;99.90;;;;;;5068862;28;20118;-58
2023/01/07 08:18:03;;;;;;;32.78;21.58;;;9.00;99.90;;;;;;5070091;28;20108;-58
2023/01/07 08:20:29;;;;;;;31.65;19.50;;;9.00;99.90;;;;;;5070091;28;20056;-60
2023/01/07 08:22:59;;;;;;;36.95;20.33;;;9.00;99.90;;;;;;5069991;28;20040;-58
2023/01/07 08:25:25;;;;;;;30.40;20.63;;;9.00;99.90;;;;;;5069446;28;20086;-59
2023/01/07 08:27:50;;;;;;;32.58;21.08;;;9.00;99.90;;;;;;5070008;28;20424;-60
2023/01/07 08:30:16;;;;;;;29.77;21.63;;;9.00;99.90;;;;;;5069894;28;20058;-59
2023/01/07 08:32:41;;;;;;;31.63;21.25;;;9.00;99.90;;;;;;5051689;28;20710;-60
2023/01/07 08:35:08;;;;;;;33.30;21.73;;;9.00;99.90;;;;;;5069435;28;20027;-60
2023/01/07 08:37:33;;;;;;;31.35;20.88;;;9.00;99.90;;;;;;5069766;28;20514;-59
2023/01/07 08:39:59;;;;;;;35.53;22.80;;;9.10;99.90;;;;;;5068590;28;20103;-60
2023/01/07 08:42:24;;;;;;;32.25;22.08;;;9.10;99.90;;;;;;5051562;28;20036;-58
2023/01/07 08:44:50;;;;;;;31.15;21.13;;;9.10;99.90;;;;;;5069020;28;20439;-60
2023/01/07 08:47:15;;;;;;;31.35;20.02;;;9.10;99.90;;;;;;5069357;28;20035;-58
2023/01/07 08:49:41;;;;;;;30.63;21.67;;;9.10;99.90;;;;;;5064329;28;20524;-61
2023/01/07 08:52:06;;;;;;;34.83;21.88;;;9.20;99.90;;;;;;5066004;28;20024;-60
2023/01/07 08:54:32;;;;;;;30.02;21.27;;;9.20;99.90;;;;;;5068379;28;20051;-61
2023/01/07 08:56:57;;;;;;;29.63;21.75;;;9.20;99.90;;;;;;5069260;28;20481;-60
2023/01/07 08:59:23;;;;;;;30.88;20.55;;;9.20;99.90;;;;;;5061818;28;20043;-59
2023/01/07 09:01:48;;;;;;;30.50;22.08;;;9.20;99.90;;;;;;5069386;28;20032;-58
2023/01/07 09:04:14;;;;;;;31.50;20.25;;;9.20;99.90;;;;;;5069165;28;20039;-58
2023/01/07 09:06:39;;;;;;;32.13;21.35;;;9.20;99.90;;;;;;5068965;28;20025;-60
2023/01/07 09:09:05;;;;;;;29.55;21.05;;;9.30;99.90;;;;;;5069156;28;20032;-59
2023/01/07 09:11:31;;;;;;;26.73;19.65;;;9.30;99.90;;;;;;5069314;28;20059;-60
2023/01/07 09:13:56;;;;;;;35.25;20.80;;;9.30;99.90;;;;;;5067185;28;20028;-60
2023/01/07 09:16:22;;;;;;;26.27;19.67;;;9.30;99.90;;;;;;5092252;22;20125;-52
2023/01/07 09:18:48;;;;;;;26.50;18.45;;;9.30;99.90;;;;;;5068854;28;20082;-54
2023/01/07 09:21:14;;;;;;;25.80;17.77;;;9.40;99.90;;;;;;5067653;28;20121;-51
2023/01/07 09:23:39;;;;;;;27.08;18.73;;;9.40;99.90;;;;;;5063948;28;20787;-53
2023/01/07 09:26:05;;;;;;;26.08;18.25;;;9.40;99.90;;;;;;5068874;28;20050;-50
2023/01/07 09:28:31;;;;;;;23.85;18.15;;;9.40;99.90;;;;;;5069482;28;20498;-51
2023/01/07 09:30:56;;;;;;;24.00;17.70;;;9.40;99.90;;;;;;5067201;28;20066;-54
2023/01/07 09:33:22;;;;;;;21.73;15.95;;;9.40;99.90;;;;;;5068932;28;20034;-54
2023/01/07 09:35:47;;;;;;;22.48;17.15;;;9.40;99.90;;;;;;5068723;28;20047;-51
2023/01/07 09:38:13;;;;;;;20.05;15.45;;;9.40;99.90;;;;;;5069197;28;20029;-52
2023/01/07 09:40:41;;;;;;;17.25;14.02;;;9.40;99.90;;;;;;5068898;28;20040;-55
2023/01/07 09:43:34;;;;;;;20.55;15.00;;;9.40;99.90;;;;;;5069242;28;20028;-51
2023/01/07 09:46:03;;;;;;;20.65;13.77;;;9.50;99.90;;;;;;5065618;28;20031;-51
2023/01/07 09:48:42;;;;;;;17.35;13.23;;;9.50;99.90;;;;;;5066312;28;20444;-54
2023/01/07 09:51:32;;;;;;;19.35;12.77;;;9.50;99.90;;;;;;5066244;28;20512;-50
2023/01/07 09:54:01;;;;;;;14.05;11.15;;;9.50;99.90;;;;;;5062769;28;20052;-53
2023/01/07 09:56:32;;;;;;;14.38;10.43;;;9.60;99.90;;;;;;5068817;28;20526;-53
2023/01/07 09:58:59;;;;;;;14.02;11.20;;;9.60;99.90;;;;;;5068906;28;20025;-53
2023/01/07 10:01:28;;;;;;;12.18;10.02;;;9.60;99.90;;;;;;5051042;28;20449;-51
2023/01/07 10:04:20;;;;;;;13.63;9.48;;;9.60;99.90;;;;;;5063257;28;20028;-54
2023/01/07 10:07:08;;;;;;;9.13;7.75;;;9.60;99.90;;;;;;5064102;28;20034;-55
2023/01/07 10:10:04;;;;;;;10.05;7.18;;;9.70;99.90;;;;;;5062667;28;20428;-51
2023/01/07 10:12:42;;;;;;;9.00;6.70;;;9.70;99.90;;;;;;5064913;28;20157;-53
2023/01/07 10:15:20;;;;;;;8.00;6.78;;;9.70;99.90;;;;;;5067898;28;20719;-52
2023/01/07 10:18:14;;;;;;;7.60;6.32;;;9.70;99.90;;;;;;5061952;28;20029;-53
2023/01/07 10:20:55;;;;;;;6.93;5.25;;;9.70;99.90;;;;;;5067592;28;20017;-55
2023/01/07 10:23:24;;;;;;;8.02;6.10;;;9.70;99.90;;;;;;5068620;28;20020;-52
2023/01/07 10:25:53;;;;;;;6.15;5.20;;;9.70;99.90;;;;;;5060670;28;20017;-54
2023/01/07 10:28:26;;;;;;;7.75;5.30;;;9.80;99.90;;;;;;5063750;28;20031;-54
2023/01/07 10:30:51;;;;;;;4.20;3.80;;;9.80;99.90;;;;;;5058091;28;20062;-52
2023/01/07 10:33:28;;;;;;;4.78;4.28;;;9.80;99.90;;;;;;5059675;28;20056;-51
2023/01/07 10:36:03;;;;;;;4.25;3.67;;;9.80;99.90;;;;;;5059492;28;20074;-54
2023/01/07 10:38:33;;;;;;;4.95;4.10;;;9.90;99.90;;;;;;5063281;28;20542;-55
2023/01/07 10:41:07;;;;;;;3.72;3.42;;;9.90;99.90;;;;;;5063894;28;20036;-54
2023/01/07 10:43:40;;;;;;;6.93;3.70;;;10.00;99.90;;;;;;5061991;28;20060;-54
2023/01/07 10:46:32;;;;;;;4.10;3.70;;;10.00;99.90;;;;;;5059862;28;20043;-56
2023/01/07 10:49:16;;;;;;;4.20;3.80;;;10.10;99.90;;;;;;5048132;28;20090;-55
2023/01/07 10:51:56;;;;;;;4.88;3.78;;;10.20;99.90;;;;;;5060366;28;20032;-55
2023/01/07 10:54:47;;;;;;;3.30;3.00;;;10.20;99.90;;;;;;5068766;28;20078;-53
2023/01/07 10:57:19;;;;;;;2.88;2.63;;;10.20;99.90;;;;;;5069164;28;20021;-55
2023/01/07 10:59:49;;;;;;;4.22;3.15;;;10.20;99.90;;;;;;5066338;28;20028;-54
2023/01/07 11:02:18;;;;;;;2.40;2.20;;;10.20;99.90;;;;;;5066325;28;20024;-54
2023/01/07 11:04:45;;;;;;;3.28;2.30;;;10.30;99.90;;;;;;5071024;28;20019;-55
2023/01/07 11:07:16;;;;;;;2.50;2.28;;;10.30;99.90;;;;;;5071842;28;20021;-53
2023/01/07 11:09:44;;;;;;;3.70;2.50;;;10.30;99.90;;;;;;5071503;28;20027;-55
2023/01/07 11:12:31;;;;;;;2.83;2.30;;;10.30;99.90;;;;;;5071733;28;20095;-55
2023/01/07 11:14:57;;;;;;;;;;;10.40;99.90;;;;;;5046960;28;20035;-51
2023/01/07 11:17:27;;;;;;;2.72;2.42;;;10.40;99.90;;;;;;5071034;28;19916;-53
2023/01/07 11:19:53;;;;;;;1.75;1.65;;;10.40;99.90;;;;;;5071814;28;20567;-53
2023/01/07 11:22:25;;;;;;;2.90;2.63;;;10.50;99.90;;;;;;5071309;28;20104;-54
2023/01/07 11:24:51;;;;;;;2.83;2.10;;;10.50;99.90;;;;;;5067970;28;20125;-53
2023/01/07 11:27:18;;;;;;;3.40;2.30;;;10.50;99.90;;;;;;5071050;28;20096;-55
2023/01/07 11:30:18;;;;;;;1.98;1.77;;;10.50;99.90;;;;;;5070919;28;20090;-51
2023/01/07 11:33:00;;;;;;;2.08;1.90;;;10.50;99.90;;;;;;5069936;28;20151;-55
2023/01/07 11:35:28;;;;;;;2.47;1.92;;;10.50;99.90;;;;;;5070890;28;20040;-55
2023/01/07 11:37:55;;;;;;;1.88;1.77;;;10.50;99.90;;;;;;5065503;28;20017;-55
2023/01/07 11:40:24;;;;;;;3.33;1.80;;;10.50;99.90;;;;;;5064410;28;20028;-54
2023/01/07 11:42:53;;;;;;;2.15;1.95;;;10.50;99.90;;;;;;5070832;28;20020;-55
2023/01/07 11:45:26;;;;;;;3.05;1.70;;;10.50;99.90;;;;;;5070198;28;20655;-52
2023/01/07 11:48:03;;;;;;;1.40;1.30;;;10.50;99.90;;;;;;5070466;28;20024;-52
2023/01/07 11:50:34;;;;;;;1.70;1.40;;;10.50;99.90;;;;;;5070824;28;20036;-52
2023/01/07 11:53:34;;;;;;;1.52;1.42;;;10.50;99.90;;;;;;5070790;28;20383;-55
2023/01/07 11:56:05;;;;;;;1.90;1.70;;;10.50;99.90;;;;;;5050202;28;20041;-53
2023/01/07 11:58:43;;;;;;;1.60;1.50;;;10.60;99.90;;;;;;5070091;28;20668;-52
2023/01/07 12:01:11;;;;;;;1.55;1.25;;;10.60;99.90;;;;;;5061978;28;20095;-54
2023/01/07 12:03:41;;;;;;;1.60;1.50;;;10.60;99.90;;;;;;5070392;28;20063;-53
2023/01/07 12:06:10;;;;;;;4.28;1.60;;;10.60;99.90;;;;;;5069923;28;20035;-52
2023/01/07 12:08:39;;;;;;;1.45;1.35;;;10.60;99.90;;;;;;5067115;28;20032;-54
2023/01/07 12:11:07;;;;;;;1.63;1.42;;;10.60;99.90;;;;;;5069876;28;20557;-56
2023/01/07 12:13:34;;;;;;;1.38;1.25;;;10.60;99.90;;;;;;5064432;28;20032;-52
2023/01/07 12:16:06;;;;;;;1.48;1.20;;;10.60;99.90;;;;;;5051636;28;20043;-56
2023/01/07 12:18:46;;;;;;;1.27;1.17;;;10.60;99.90;;;;;;5069804;28;20032;-54
2023/01/07 12:21:27;;;;;;;1.20;1.10;;;10.50;99.90;;;;;;5067753;28;20025;-52
2023/01/07 12:24:11;;;;;;;1.15;1.05;;;10.60;99.90;;;;;;5064091;28;20036;-56
2023/01/07 12:26:51;;;;;;;1.73;1.20;;;10.60;99.90;;;;;;5068242;28;20020;-52
2023/01/07 12:29:23;;;;;;;1.60;1.50;;;10.60;99.90;;;;;;5069042;28;20056;-55
2023/01/07 12:31:54;;;;;;;1.50;1.25;;;10.60;99.90;;;;;;5068975;28;20029;-54
2023/01/07 12:34:53;;;;;;;1.30;1.20;;;10.60;99.90;;;;;;5064513;28;20511;-53
2023/01/07 12:37:41;;;;;;;1.63;0.98;;;10.60;99.90;;;;;;5065390;28;20123;-56
2023/01/07 12:40:15;;;;;;;1.55;0.93;;;10.60;99.90;;;;;;5066317;28;20025;-55
2023/01/07 12:42:49;;;;;;;1.15;1.08;;;10.60;99.90;;;;;;5068870;28;20050;-52
2023/01/07 12:45:40;;;;;;;1.45;1.10;;;10.60;99.90;;;;;;5068907;28;20036;-55
2023/01/07 12:48:17;;;;;;;1.73;1.00;;;10.60;99.90;;;;;;5050138;28;20037;-56
2023/01/07 12:50:48;;;;;;;2.10;0.90;;;10.60;99.90;;;;;;5063145;28;20135;-52
2023/01/07 12:53:36;;;;;;;1.25;1.00;;;10.60;99.90;;;;;;5049354;28;20070;-58
2023/01/07 12:56:35;;;;;;;2.40;1.15;;;10.60;99.90;;;;;;5061901;28;20036;-52
2023/01/07 12:59:16;;;;;;;1.65;1.55;;;10.60;99.90;;;;;;5050240;28;20052;-56